Orlik, Russia
Current Conditions -  °F | °C
As of 7:30 AM on Monday 22 Dec 2014 (Local Time) from UIII Reporting Station
Haze Haze  
Wind Chill:   Ceiling: 100
Heat Index:   Visibility: 1.8mi
Dew Point: -2°   Wind: 0mph
Humidity: 85%   Direction: NA
Pressure: 30.15"   Gusts: NA
Location:  52.51°N, 99.83°E
Report Text: UIII 212330Z 00000MPS 3000 BR OVC001 M17/M19 Q1021 REFZFG NOSIGRMK QBB030 QFE723/0964 12390142
Loading
Personal Weather Stations






























Interactive Weather Map New forecast layout! Learn more

10-Day Weather Forecast

Advertisements
Track Severe Weather on mobile